Weather at Korsør Airfield

Public forecast

Using degrees Celsius for public forecast. Weather courtesy of forecast.io.

Closest aviation weather report (METAR) to Korsør Airfield

Closest report is Ringsted Airfield, 20.0 nm (37.0 km) ENE.

2024/05/30 09:20 (retrieved 14 minutes ago)

EKRS 300920Z AUTO VRB04KT 9999 BKN024/// BKN120/// 17/17 Q1007

Closest aviation forecast (TAF) to Korsør Airfield

Closest forecast is Copenhagen Kastrup Airport, 51.0 nm (94.4 km) ENE.

2024/05/30 06:30 (retrieved 3 hours ago)

TAF EKCH 300508Z 3006/3106 13012KT 9999 FEW020 BKN040 TEMPO 3006/3007 4000 SHRA BR BKN012 BKN020CB TEMPO 3007/3009 BKN012 FEW020CB TEMPO 3009/3024 FEW020CB TEMPO 3100/3106 BKN008 SCT020CB